Jackson, MN

5:25 PM CDT on September 27, 2016 (GMT -0500)
Jackson Municipal

Weather History for KMJQ - October, 2012

Change the Weather History Date:

Friday, October 5, 2012

  Actual Average Record
Temperature  
Mean Temperature 41 °F -  
Max Temperature 50 °F 63 °F 84 °F (2011)
Min Temperature 32 °F 40 °F 32 °F (2001)
Degree Days  
Heating Degree Days 24    
Moisture  
Dew Point 20 °F    
Average Humidity 49    
Maximum Humidity 80    
Minimum Humidity 20    
Precipitation  
Precipitation 0.00 in - - ()
Sea Level Pressure  
Sea Level Pressure 30.21 in    
Wind  
Wind Speed 15 mph (WNW)    
Max Wind Speed 26 mph    
Max Gust Speed 33 mph    
Visibility 10 miles    
Events      
Averages and records for this station are not official NWS values.
T = Trace of Precipitation, MM = Missing Value Source: NWS Daily Summary

Daily Weather History Graph

Daily Weather History Graph

Search for Another Location

Airport or City:

Trip Planner

Search our weather history database for the weather conditions in past years. The results will help you decide how hot, cold, wet, or windy it might be!

Date:

Astronomy

Oct. 05, 2012 Rise Set
Actual Time 7:22 AM CDT 6:52 PM CDT
Civil Twilight 6:54 AM CDT 7:21 PM CDT
Nautical Twilight 6:20 AM CDT 7:54 PM CDT
Astronomical Twilight 5:47 AM CDT 8:28 PM CDT
Moon 10:08 PM CDT (10/5) 12:40 PM CDT (10/5)
Length of Visible Light 12h 27m
Length of Day
11h 30m
Waning Gibbous, 74% of the Moon is Illuminated
Oct 5
Waning Gibbous
Oct 8
Last Quarter
Oct 15
New
Oct 21
First Quarter
Oct 29
Full

Hourly Weather History & Observations

Time (CDT) Temp. Windchill Dew Point Humidity Pressure Visibility Wind Dir Wind Speed Gust Speed Precip Events Conditions
12:13 AM 41.0 °F 33.1 °F 26.6 °F 57% 30.23 in 10.0 mi NW 15.0 mph - N/A   Clear
12:33 AM 41.0 °F 32.5 °F 26.6 °F 57% 30.24 in 10.0 mi WNW 17.3 mph 21.9 mph N/A   Clear
12:54 AM 41.0 °F 33.9 °F 26.6 °F 57% 30.23 in 10.0 mi WNW 12.7 mph - N/A   Clear
1:13 AM 41.0 °F 34.3 °F 26.6 °F 57% 30.23 in 10.0 mi WNW 11.5 mph 18.4 mph N/A   Scattered Clouds
1:33 AM 41.0 °F 33.5 °F 24.8 °F 53% 30.23 in 10.0 mi WNW 13.8 mph 19.6 mph N/A   Mostly Cloudy
1:54 AM 39.2 °F 30.5 °F 23.0 °F 52% 30.24 in 10.0 mi WNW 16.1 mph 19.6 mph N/A   Scattered Clouds
2:13 AM 39.2 °F 31.6 °F 23.0 °F 52% 30.24 in 10.0 mi NW 12.7 mph - N/A   Clear
2:33 AM 37.4 °F 30.3 °F 23.0 °F 56% 30.24 in 10.0 mi WNW 10.4 mph 17.3 mph N/A   Clear
2:54 AM 37.4 °F 30.3 °F 23.0 °F 56% 30.24 in 10.0 mi WNW 10.4 mph - N/A   Clear
3:13 AM 35.6 °F 28.6 °F 23.0 °F 60% 30.23 in 10.0 mi WNW 9.2 mph - N/A   Clear
3:33 AM 35.6 °F 28.6 °F 24.8 °F 65% 30.23 in 10.0 mi West 9.2 mph - N/A   Clear
3:54 AM 35.6 °F 29.2 °F 24.8 °F 65% 30.23 in 10.0 mi WNW 8.1 mph - N/A   Clear
4:13 AM 35.6 °F 28.6 °F 24.8 °F 65% 30.23 in 10.0 mi West 9.2 mph 16.1 mph N/A   Clear
4:34 AM 33.8 °F 28.6 °F 24.8 °F 70% 30.23 in 10.0 mi West 5.8 mph - N/A   Clear
4:54 AM 33.8 °F 26.4 °F 24.8 °F 70% 30.22 in 10.0 mi West 9.2 mph - N/A   Clear
5:13 AM 33.8 °F 27.0 °F 24.8 °F 70% 30.23 in 10.0 mi West 8.1 mph - N/A   Clear
5:34 AM 32.0 °F 24.2 °F 24.8 °F 75% 30.23 in 10.0 mi West 9.2 mph - N/A   Clear
5:53 AM 33.8 °F 25.3 °F 26.6 °F 75% 30.23 in 10.0 mi West 11.5 mph - N/A   Clear
6:13 AM 33.8 °F 26.4 °F 26.6 °F 75% 30.22 in 10.0 mi West 9.2 mph - N/A   Clear
6:34 AM 32.0 °F 23.6 °F 26.6 °F 80% 30.22 in 10.0 mi West 10.4 mph - N/A   Clear
6:53 AM 33.8 °F 24.8 °F 26.6 °F 75% 30.22 in 10.0 mi WNW 12.7 mph 18.4 mph N/A   Clear
7:13 AM 33.8 °F 24.3 °F 26.6 °F 75% 30.22 in 10.0 mi WNW 13.8 mph 18.4 mph N/A   Clear
7:34 AM 33.8 °F 23.5 °F 26.6 °F 75% 30.21 in 10.0 mi WNW 16.1 mph 24.2 mph N/A   Clear
7:53 AM 33.8 °F 24.3 °F 26.6 °F 75% 30.21 in 10.0 mi WNW 13.8 mph 19.6 mph N/A   Clear
8:13 AM 33.8 °F 22.8 °F 26.6 °F 75% 30.21 in 10.0 mi WNW 18.4 mph - N/A   Clear
8:34 AM 35.6 °F 25.9 °F 24.8 °F 65% 30.22 in 10.0 mi WNW 16.1 mph 25.3 mph N/A   Clear
8:53 AM 35.6 °F 24.8 °F 23.0 °F 60% 30.21 in 10.0 mi WNW 19.6 mph 27.6 mph N/A   Clear
9:13 AM 37.4 °F 27.5 °F 23.0 °F 56% 30.22 in 10.0 mi WNW 18.4 mph 24.2 mph N/A   Clear
9:34 AM 37.4 °F 25.6 °F 21.2 °F 52% 30.21 in 10.0 mi NW 26.5 mph 31.1 mph N/A   Clear
9:53 AM 37.4 °F 26.4 °F 19.4 °F 48% 30.21 in 10.0 mi NW 23.0 mph 31.1 mph N/A   Clear
10:13 AM 39.2 °F 28.7 °F 19.4 °F 45% 30.21 in 10.0 mi WNW 23.0 mph 28.8 mph N/A   Clear
10:33 AM 41.0 °F 32.2 °F 19.4 °F 42% 30.22 in 10.0 mi NW 18.4 mph 25.3 mph N/A   Clear
10:53 AM 41.0 °F 31.4 °F 19.4 °F 42% 30.21 in 10.0 mi NW 21.9 mph 29.9 mph N/A   Clear
11:14 AM 41.0 °F 31.9 °F 17.6 °F 39% 30.22 in 10.0 mi WNW 19.6 mph 28.8 mph N/A   Clear
11:33 AM 41.0 °F 31.9 °F 17.6 °F 39% 30.22 in 10.0 mi WNW 19.6 mph 25.3 mph N/A   Clear
12:13 PM 42.8 °F 34.5 °F 15.8 °F 34% 30.22 in 10.0 mi WNW 18.4 mph 24.2 mph N/A   Clear
12:33 PM 44.6 °F 36.6 °F 14.0 °F 29% 30.22 in 10.0 mi WNW 19.6 mph 26.5 mph N/A   Clear
12:54 PM 44.6 °F 36.4 °F 14.0 °F 29% 30.21 in 10.0 mi West 20.7 mph 28.8 mph N/A   Clear
1:33 PM 46.4 °F 38.7 °F 14.0 °F 27% 30.20 in 10.0 mi WNW 20.7 mph 29.9 mph N/A   Clear
1:54 PM 46.4 °F 39.0 °F 12.2 °F 25% 30.19 in 10.0 mi WNW 19.6 mph 28.8 mph N/A   Clear
2:13 PM 48.2 °F - 12.2 °F 24% 30.19 in 10.0 mi NW 24.2 mph 29.9 mph N/A   Clear
2:33 PM 48.2 °F - 12.2 °F 24% 30.19 in 10.0 mi WNW 24.2 mph 33.4 mph N/A   Clear
2:54 PM 50.0 °F - 12.2 °F 22% 30.19 in 10.0 mi WNW 23.0 mph 29.9 mph N/A   Clear
3:13 PM 48.2 °F - 12.2 °F 24% 30.18 in 10.0 mi NW 26.5 mph 32.2 mph N/A   Clear
3:33 PM 50.0 °F - 10.4 °F 20% 30.19 in 10.0 mi WNW 25.3 mph 31.1 mph N/A   Clear
3:54 PM 50.0 °F - 12.2 °F 22% 30.18 in 10.0 mi WNW 18.4 mph 27.6 mph N/A   Clear
4:13 PM 48.2 °F - 12.2 °F 24% 30.18 in 10.0 mi WNW 21.9 mph 31.1 mph N/A   Clear
4:33 PM 48.2 °F - 12.2 °F 24% 30.18 in 10.0 mi WNW 25.3 mph 29.9 mph N/A   Clear
4:54 PM 48.2 °F - 10.4 °F 22% 30.18 in 10.0 mi WNW 23.0 mph 29.9 mph N/A   Clear
5:13 PM 46.4 °F 38.7 °F 10.4 °F 23% 30.18 in 10.0 mi WNW 20.7 mph 31.1 mph N/A   Clear
5:33 PM 46.4 °F 38.5 °F 10.4 °F 23% 30.18 in 10.0 mi NW 21.9 mph 32.2 mph N/A   Clear
5:54 PM 44.6 °F 36.9 °F 10.4 °F 25% 30.18 in 10.0 mi WNW 18.4 mph 27.6 mph N/A   Clear
6:13 PM 44.6 °F 36.6 °F 12.2 °F 27% 30.19 in 10.0 mi NW 19.6 mph 28.8 mph N/A   Clear
6:33 PM 44.6 °F 37.8 °F 14.0 °F 29% 30.19 in 10.0 mi NW 15.0 mph 21.9 mph N/A   Clear
6:54 PM 42.8 °F 34.8 °F 15.8 °F 34% 30.19 in 10.0 mi NW 17.3 mph 21.9 mph N/A   Clear
7:13 PM 42.8 °F 36.6 °F 17.6 °F 36% 30.20 in 10.0 mi NW 11.5 mph - N/A   Clear
7:33 PM 41.0 °F 34.7 °F 17.6 °F 39% 30.20 in 10.0 mi NW 10.4 mph - N/A   Clear
7:54 PM 39.2 °F 32.5 °F 19.4 °F 45% 30.21 in 10.0 mi NW 10.4 mph - N/A   Clear
8:13 PM 39.2 °F 32.0 °F 19.4 °F 45% 30.22 in 10.0 mi NW 11.5 mph - N/A   Clear
8:33 PM 37.4 °F 29.3 °F 21.2 °F 52% 30.22 in 10.0 mi NW 12.7 mph - N/A   Clear
8:54 PM 35.6 °F 28.6 °F 21.2 °F 56% 30.23 in 10.0 mi NW 9.2 mph - N/A   Clear
9:13 PM 37.4 °F 30.3 °F 21.2 °F 52% 30.23 in 10.0 mi NW 10.4 mph - N/A   Clear
9:34 PM 35.6 °F 28.0 °F 21.2 °F 56% 30.23 in 10.0 mi NW 10.4 mph - N/A   Clear
9:53 PM 35.6 °F 28.6 °F 21.2 °F 56% 30.24 in 10.0 mi WNW 9.2 mph - N/A   Clear
10:33 PM 32.0 °F 24.2 °F 21.2 °F 64% 30.24 in 10.0 mi WNW 9.2 mph - N/A   Clear
10:53 PM 32.0 °F 25.6 °F 21.2 °F 64% 30.24 in 10.0 mi WNW 6.9 mph - N/A   Clear
11:33 PM 32.0 °F 24.8 °F 21.2 °F 64% 30.23 in 10.0 mi NW 8.1 mph - N/A   Scattered Clouds
11:53 PM 33.8 °F 24.3 °F 23.0 °F 65% 30.22 in 10.0 mi NNW 13.8 mph 17.3 mph N/A   Overcast